createdAt,value
2019-01-12T00:00:25.966Z,44.43
2019-01-12T00:02:54.591Z,39.77
2019-01-12T00:05:23.287Z,37.73
2019-01-12T00:07:52.131Z,44.80
2019-01-12T00:10:20.734Z,41.97
2019-01-12T00:12:49.444Z,52.13
2019-01-12T00:15:18.054Z,43.33
2019-01-12T00:17:46.678Z,58.97
2019-01-12T00:20:15.267Z,46.57
2019-01-12T00:22:43.959Z,37.00
2019-01-12T00:25:12.577Z,58.70
2019-01-12T00:27:41.204Z,61.43
2019-01-12T00:30:10.307Z,41.63
2019-01-12T00:32:38.952Z,42.23
2019-01-12T00:35:07.724Z,39.63
2019-01-12T00:37:36.357Z,58.07
2019-01-12T00:40:05.652Z,49.90
2019-01-12T00:42:34.247Z,34.80
2019-01-12T00:45:02.928Z,51.40
2019-01-12T00:47:32.717Z,40.10
2019-01-12T00:50:01.747Z,43.43
2019-01-12T00:52:30.359Z,45.10
2019-01-12T00:54:58.988Z,36.73
2019-01-12T00:57:27.602Z,29.63
2019-01-12T00:59:56.269Z,52.37
2019-01-12T01:02:24.900Z,40.53
2019-01-12T01:04:53.523Z,30.83
2019-01-12T01:07:22.125Z,40.27
2019-01-12T01:09:50.761Z,38.17
2019-01-12T01:12:19.447Z,43.87
2019-01-12T01:14:48.063Z,38.83
2019-01-12T01:17:16.745Z,39.43
2019-01-12T01:19:45.455Z,35.90
2019-01-12T01:22:14.067Z,31.50
2019-01-12T01:24:45.966Z,38.50
2019-01-12T01:27:13.019Z,29.47
2019-01-12T01:29:41.632Z,40.87
2019-01-12T01:32:10.229Z,42.97
2019-01-12T01:34:38.848Z,42.80
2019-01-12T01:37:07.458Z,27.17
2019-01-12T01:39:36.193Z,27.33
2019-01-12T01:42:05.082Z,27.03
2019-01-12T01:44:33.851Z,39.83
2019-01-12T01:47:02.497Z,32.63
2019-01-12T01:49:31.212Z,25.53
2019-01-12T01:51:59.836Z,30.17
2019-01-12T01:54:28.471Z,40.40
2019-01-12T01:56:57.099Z,37.40
2019-01-12T01:59:25.687Z,37.20
2019-01-12T02:01:54.536Z,25.70
2019-01-12T02:04:23.152Z,35.20
2019-01-12T02:06:51.736Z,31.20
2019-01-12T02:09:20.371Z,26.43
2019-01-12T02:11:49.032Z,34.33
2019-01-12T02:14:17.674Z,24.23
2019-01-12T02:16:46.512Z,34.37
2019-01-12T02:19:15.164Z,33.40
2019-01-12T02:21:43.818Z,33.10
2019-01-12T02:24:12.419Z,45.17
2019-01-12T02:26:41.015Z,24.27
2019-01-12T02:29:09.979Z,22.93
2019-01-12T02:31:38.865Z,18.57
2019-01-12T02:34:07.753Z,17.07
2019-01-12T02:36:36.359Z,21.03
2019-01-12T02:39:06.731Z,19.73
2019-01-12T02:41:35.334Z,28.23
2019-01-12T02:44:04.355Z,26.77
2019-01-12T02:46:32.983Z,18.60
2019-01-12T02:49:01.882Z,26.43
2019-01-12T02:51:30.567Z,19.93
2019-01-12T02:53:59.432Z,16.50
2019-01-12T02:56:28.244Z,18.40
2019-01-12T02:58:56.855Z,14.57
2019-01-12T03:01:25.485Z,18.43
2019-01-12T03:03:54.099Z,15.03
2019-01-12T03:06:22.726Z,14.07
2019-01-12T03:08:51.358Z,12.80
2019-01-12T03:11:20.023Z,12.00
2019-01-12T03:13:48.703Z,15.20
2019-01-12T03:16:17.327Z,13.30
2019-01-12T03:18:45.912Z,9.93
2019-01-12T03:21:14.569Z,14.40
2019-01-12T03:23:43.169Z,7.47
2019-01-12T03:26:11.779Z,14.70
2019-01-12T03:28:40.379Z,11.77
2019-01-12T03:31:09.230Z,17.77
2019-01-12T03:33:37.843Z,17.20
2019-01-12T03:36:06.503Z,11.67
2019-01-12T03:38:36.024Z,11.23
2019-01-12T03:41:04.789Z,10.80
2019-01-12T03:43:33.447Z,11.10
2019-01-12T03:46:02.104Z,10.20
2019-01-12T03:48:30.743Z,18.27
2019-01-12T03:50:59.375Z,9.37
2019-01-12T03:53:27.983Z,11.00
2019-01-12T03:55:56.615Z,12.87
2019-01-12T03:58:25.210Z,16.40
2019-01-12T04:00:53.837Z,8.90
2019-01-12T04:03:22.453Z,9.37
2019-01-12T04:05:51.376Z,8.90
2019-01-12T04:08:20.049Z,7.17
2019-01-12T04:10:48.688Z,14.60
2019-01-12T04:13:17.540Z,9.50
2019-01-12T04:15:46.183Z,8.27
2019-01-12T04:18:14.843Z,8.40
2019-01-12T04:20:43.495Z,9.10
2019-01-12T04:23:12.115Z,7.67
2019-01-12T04:25:40.749Z,4.23
2019-01-12T04:28:09.435Z,7.17
2019-01-12T04:30:38.061Z,4.87
2019-01-12T04:33:06.689Z,6.60
2019-01-12T04:35:35.549Z,5.77
2019-01-12T04:38:04.227Z,4.57
2019-01-12T04:40:32.859Z,8.53
2019-01-12T04:43:01.560Z,5.53
2019-01-12T04:45:30.207Z,5.63
2019-01-12T04:47:58.820Z,4.93
2019-01-12T04:50:27.429Z,5.27
2019-01-12T04:52:56.058Z,5.57
2019-01-12T04:55:24.664Z,8.63
2019-01-12T04:57:53.827Z,11.60
2019-01-12T05:00:22.498Z,6.53
2019-01-12T05:02:51.192Z,7.73
2019-01-12T05:05:20.029Z,10.50
2019-01-12T05:07:48.715Z,7.63
2019-01-12T05:10:17.795Z,5.60
2019-01-12T05:12:46.514Z,7.93
2019-01-12T05:15:15.742Z,7.37
2019-01-12T05:17:44.540Z,3.40
2019-01-12T05:20:18.330Z,8.27
2019-01-12T05:22:47.083Z,5.50
2019-01-12T05:25:15.783Z,5.80
2019-01-12T05:27:44.394Z,6.47
2019-01-12T05:30:17.079Z,8.63
2019-01-12T05:32:45.839Z,5.80
2019-01-12T05:35:14.569Z,6.57
2019-01-12T05:37:43.281Z,6.80
2019-01-12T05:40:12.169Z,11.80
2019-01-12T05:42:41.003Z,5.57
2019-01-12T05:45:09.987Z,6.50
2019-01-12T05:47:38.627Z,6.23
2019-01-12T05:50:09.209Z,2.67
2019-01-12T05:52:37.998Z,5.27
2019-01-12T05:55:07.412Z,3.70
2019-01-12T05:57:36.043Z,2.90
2019-01-12T06:00:08.118Z,3.07
2019-01-12T06:02:36.729Z,3.33
2019-01-12T06:05:05.388Z,3.73
2019-01-12T06:07:33.991Z,2.57
2019-01-12T06:10:02.923Z,2.20
2019-01-12T06:12:31.526Z,4.20
2019-01-12T06:15:00.237Z,5.17
2019-01-12T06:17:28.840Z,8.20
2019-01-12T06:19:57.434Z,5.37
2019-01-12T06:22:26.039Z,3.97
2019-01-12T06:24:54.646Z,5.23
2019-01-12T06:27:23.248Z,5.83
2019-01-12T06:29:51.849Z,6.17
2019-01-12T06:32:20.471Z,3.97
2019-01-12T06:34:49.080Z,4.23
2019-01-12T06:37:17.703Z,5.67
2019-01-12T06:39:46.313Z,8.10
2019-01-12T06:42:14.948Z,7.37
2019-01-12T06:44:43.548Z,5.70
2019-01-12T06:47:12.168Z,8.00
2019-01-12T06:49:40.770Z,7.27
2019-01-12T06:52:09.385Z,4.40
2019-01-12T06:54:37.970Z,6.83
2019-01-12T06:57:06.584Z,7.23
2019-01-12T06:59:35.429Z,7.43
2019-01-12T07:02:04.224Z,5.03
2019-01-12T07:04:32.826Z,6.00
2019-01-12T07:07:01.428Z,5.07
2019-01-12T07:09:30.008Z,7.67
2019-01-12T07:11:58.623Z,6.67
2019-01-12T07:14:27.224Z,11.37
2019-01-12T07:16:55.847Z,8.30
2019-01-12T07:19:24.544Z,6.27
2019-01-12T07:21:53.145Z,8.00
2019-01-12T07:24:21.766Z,6.97
2019-01-12T07:26:50.380Z,12.50
2019-01-12T07:29:18.983Z,9.20
2019-01-12T07:31:47.599Z,11.07
2019-01-12T07:34:16.263Z,9.57
2019-01-12T07:36:45.128Z,10.53
2019-01-12T07:39:13.754Z,12.47
2019-01-12T07:41:42.358Z,9.90
2019-01-12T07:44:10.959Z,7.80
2019-01-12T07:46:39.549Z,7.97
2019-01-12T07:49:08.149Z,5.50
2019-01-12T07:51:36.731Z,8.10
2019-01-12T07:54:05.455Z,10.47
2019-01-12T07:56:34.062Z,9.67
2019-01-12T07:59:02.684Z,9.10
2019-01-12T08:01:31.511Z,11.30
2019-01-12T08:04:00.137Z,9.40
2019-01-12T08:06:28.754Z,7.50
2019-01-12T08:08:57.607Z,11.47
2019-01-12T08:11:26.211Z,5.50
2019-01-12T08:13:54.819Z,9.20
2019-01-12T08:16:23.410Z,5.93
2019-01-12T08:18:52.029Z,6.60
2019-01-12T08:21:20.641Z,6.17
2019-01-12T08:23:49.251Z,7.07
2019-01-12T08:26:17.864Z,9.17
2019-01-12T08:28:46.498Z,8.37
2019-01-12T08:31:15.095Z,5.53
2019-01-12T08:33:43.791Z,6.00
2019-01-12T08:36:12.407Z,8.00
2019-01-12T08:38:41.031Z,4.53
2019-01-12T08:41:09.627Z,6.90
2019-01-12T08:43:38.263Z,15.40
2019-01-12T08:46:07.092Z,6.73
2019-01-12T08:48:35.724Z,8.90
2019-01-12T08:51:04.317Z,6.27
2019-01-12T08:53:32.947Z,7.27
2019-01-12T08:56:01.645Z,6.03
2019-01-12T08:58:30.293Z,6.97
2019-01-12T09:00:58.967Z,10.77
2019-01-12T09:03:27.595Z,14.13
2019-01-12T09:05:56.228Z,12.40
2019-01-12T09:08:24.879Z,15.23
2019-01-12T09:10:53.692Z,10.73
2019-01-12T09:13:22.370Z,15.33
2019-01-12T09:15:50.980Z,13.23
2019-01-12T09:18:19.609Z,16.90
2019-01-12T09:20:49.295Z,13.57
2019-01-12T09:23:17.896Z,18.83
2019-01-12T09:25:46.503Z,14.13
2019-01-12T09:28:15.131Z,12.63
2019-01-12T09:30:48.436Z,16.90
2019-01-12T09:33:14.114Z,22.87
2019-01-12T09:35:42.807Z,21.67
2019-01-12T09:38:11.432Z,16.90
2019-01-12T09:40:40.041Z,18.67
2019-01-12T09:43:08.688Z,20.33
2019-01-12T09:45:37.275Z,16.83
2019-01-12T09:48:05.963Z,17.60
2019-01-12T09:50:34.571Z,27.10
2019-01-12T09:53:03.238Z,18.63
2019-01-12T09:55:31.894Z,12.77
2019-01-12T09:58:00.524Z,14.23
2019-01-12T10:00:29.114Z,15.60
2019-01-12T10:02:58.048Z,16.80
2019-01-12T10:05:26.668Z,14.67
2019-01-12T10:07:55.264Z,14.93
2019-01-12T10:10:23.944Z,14.80
2019-01-12T10:12:52.617Z,15.40
2019-01-12T10:15:21.300Z,13.80
2019-01-12T10:17:49.961Z,16.90
2019-01-12T10:20:19.403Z,12.20
2019-01-12T10:22:48.089Z,11.50
2019-01-12T10:25:17.399Z,17.90
2019-01-12T10:27:46.092Z,11.77
2019-01-12T10:30:17.441Z,13.50
2019-01-12T10:32:46.059Z,14.60
2019-01-12T10:35:14.830Z,12.53
2019-01-12T10:37:43.509Z,18.60
2019-01-12T10:40:12.523Z,14.73
2019-01-12T10:42:41.106Z,19.63
2019-01-12T10:45:11.574Z,16.00
2019-01-12T10:47:40.572Z,17.33
2019-01-12T10:50:12.687Z,17.73
2019-01-12T10:52:41.299Z,15.87
2019-01-12T10:55:10.076Z,20.27
2019-01-12T10:57:38.706Z,20.00
2019-01-12T11:00:13.099Z,14.57
2019-01-12T11:02:41.779Z,21.63
2019-01-12T11:05:10.679Z,21.33
2019-01-12T11:07:39.924Z,21.37
2019-01-12T11:10:10.404Z,21.43
2019-01-12T11:12:39.167Z,19.33
2019-01-12T11:15:10.049Z,23.33
2019-01-12T11:17:38.687Z,21.00
2019-01-12T11:20:07.799Z,19.90
2019-01-12T11:22:36.400Z,22.83
2019-01-12T11:25:06.410Z,20.87
2019-01-12T11:27:35.624Z,21.60
2019-01-12T11:30:06.189Z,22.30
2019-01-12T11:32:34.795Z,20.57
2019-01-12T11:35:03.807Z,23.27
2019-01-12T11:37:32.404Z,20.43
2019-01-12T11:40:01.039Z,23.63
2019-01-12T11:42:29.704Z,22.50
2019-01-12T11:44:58.567Z,26.53
2019-01-12T11:47:27.211Z,21.90
2019-01-12T11:49:55.862Z,23.63
2019-01-12T11:52:24.557Z,27.00
2019-01-12T11:54:53.335Z,25.10
2019-01-12T11:57:21.959Z,23.10
2019-01-12T11:59:50.603Z,22.83
2019-01-12T12:02:19.228Z,24.20
2019-01-12T12:04:48.117Z,22.10
2019-01-12T12:07:16.782Z,22.57
2019-01-12T12:09:45.403Z,23.37
2019-01-12T12:12:14.054Z,23.50
2019-01-12T12:14:42.659Z,23.80
2019-01-12T12:17:11.286Z,26.20
2019-01-12T12:19:39.888Z,23.27
2019-01-12T12:22:08.528Z,23.97
2019-01-12T12:24:37.149Z,21.40
2019-01-12T12:27:05.832Z,23.23
2019-01-12T12:29:34.443Z,17.03
2019-01-12T12:32:03.083Z,19.83
2019-01-12T12:34:31.687Z,22.33
2019-01-12T12:37:00.322Z,22.53
2019-01-12T12:39:28.939Z,19.17
2019-01-12T12:41:57.568Z,20.93
2019-01-12T12:44:26.160Z,20.13
2019-01-12T12:46:54.813Z,19.43
2019-01-12T12:49:23.488Z,18.43
2019-01-12T12:51:52.122Z,19.83
2019-01-12T12:54:20.770Z,22.27
2019-01-12T12:56:49.443Z,18.50
2019-01-12T12:59:18.044Z,15.77
2019-01-12T13:01:46.663Z,16.80
2019-01-12T13:04:15.250Z,16.30
2019-01-12T13:06:43.905Z,16.20
2019-01-12T13:09:12.486Z,15.37
2019-01-12T13:11:41.139Z,17.60
2019-01-12T13:14:10.249Z,16.10
2019-01-12T13:16:38.899Z,15.63
2019-01-12T13:19:07.787Z,17.63
2019-01-12T13:21:36.758Z,19.47
2019-01-12T13:24:05.418Z,14.57
2019-01-12T13:26:34.065Z,13.30
2019-01-12T13:29:02.679Z,13.30
2019-01-12T13:31:31.763Z,13.60
2019-01-12T13:34:00.368Z,11.90
2019-01-12T13:36:29.100Z,17.03
2019-01-12T13:38:58.397Z,13.07
2019-01-12T13:41:27.035Z,11.57
2019-01-12T13:43:55.853Z,12.37
2019-01-12T13:46:24.750Z,13.63
2019-01-12T13:48:53.422Z,12.37
2019-01-12T13:51:22.034Z,12.37
2019-01-12T13:53:50.943Z,11.37
2019-01-12T13:56:19.690Z,11.30
2019-01-12T13:58:48.283Z,11.87
2019-01-12T14:01:16.919Z,11.50
2019-01-12T14:03:45.531Z,12.47
2019-01-12T14:06:14.118Z,13.37
2019-01-12T14:08:42.791Z,12.60
2019-01-12T14:11:11.400Z,12.70
2019-01-12T14:13:40.043Z,17.50
2019-01-12T14:16:08.774Z,11.23
2019-01-12T14:18:37.367Z,14.50
2019-01-12T14:21:05.956Z,13.80
2019-01-12T14:23:34.625Z,11.60
2019-01-12T14:26:03.260Z,12.13
2019-01-12T14:28:31.886Z,11.20
2019-01-12T14:31:00.544Z,9.53
2019-01-12T14:33:29.282Z,9.80
2019-01-12T14:35:57.867Z,10.40
2019-01-12T14:38:26.564Z,11.33
2019-01-12T14:40:55.159Z,14.43
2019-01-12T14:43:23.798Z,11.07
2019-01-12T14:45:52.396Z,9.70
2019-01-12T14:48:21.279Z,11.03
2019-01-12T14:50:49.879Z,14.33
2019-01-12T14:53:18.539Z,8.23
2019-01-12T14:55:47.135Z,9.83
2019-01-12T14:58:15.780Z,10.73
2019-01-12T15:00:44.447Z,11.73
2019-01-12T15:03:13.084Z,10.83
2019-01-12T15:05:41.693Z,14.37
2019-01-12T15:08:10.347Z,10.33
2019-01-12T15:10:38.943Z,9.30
2019-01-12T15:13:07.559Z,9.60
2019-01-12T15:15:36.159Z,13.03
2019-01-12T15:18:05.271Z,11.70
2019-01-12T15:20:33.883Z,10.80
2019-01-12T15:23:02.538Z,12.70
2019-01-12T15:25:31.123Z,9.27
2019-01-12T15:27:59.927Z,9.97
2019-01-12T15:30:32.527Z,11.47
2019-01-12T15:33:03.399Z,14.10
2019-01-12T15:35:33.323Z,12.37
2019-01-12T15:38:01.977Z,11.87
2019-01-12T15:40:30.652Z,12.43
2019-01-12T15:42:59.379Z,12.73
2019-01-12T15:45:28.148Z,12.47
2019-01-12T15:47:56.778Z,11.30
2019-01-12T15:50:26.628Z,12.20
2019-01-12T15:52:55.427Z,12.37
2019-01-12T15:55:24.183Z,13.77
2019-01-12T15:57:52.887Z,16.27
2019-01-12T16:00:26.500Z,14.43
2019-01-12T16:02:55.372Z,17.60
2019-01-12T16:05:24.151Z,13.10
2019-01-12T16:07:52.830Z,18.33
2019-01-12T16:10:21.444Z,14.90
2019-01-12T16:12:50.080Z,12.87
2019-01-12T16:15:23.391Z,12.13
2019-01-12T16:17:52.775Z,15.20
2019-01-12T16:20:41.426Z,12.53
2019-01-12T16:23:11.479Z,14.30
2019-01-12T16:25:40.288Z,12.13
2019-01-12T16:28:08.927Z,13.30
2019-01-12T16:30:37.515Z,13.53
2019-01-12T16:33:06.331Z,13.13
2019-01-12T16:35:34.925Z,13.97
2019-01-12T16:38:03.973Z,14.43
2019-01-12T16:40:32.571Z,12.83
2019-01-12T16:43:01.279Z,13.17
2019-01-12T16:45:29.890Z,13.60
2019-01-12T16:47:58.605Z,14.00
2019-01-12T16:50:27.444Z,11.87
2019-01-12T16:52:56.106Z,16.90
2019-01-12T16:55:24.796Z,13.77
2019-01-12T16:57:53.439Z,11.10
2019-01-12T17:00:24.783Z,16.97
2019-01-12T17:02:53.433Z,12.30
2019-01-12T17:05:22.381Z,12.43
2019-01-12T17:07:51.014Z,14.27
2019-01-12T17:10:20.468Z,13.60
2019-01-12T17:12:49.254Z,13.53
2019-01-12T17:15:20.227Z,13.73
2019-01-12T17:17:48.827Z,14.03
2019-01-12T17:20:25.835Z,19.97
2019-01-12T17:22:56.611Z,15.10
2019-01-12T17:25:26.772Z,13.93
2019-01-12T17:27:55.523Z,20.53
2019-01-12T17:30:24.243Z,18.63
2019-01-12T17:32:52.841Z,13.03
2019-01-12T17:35:21.539Z,12.33
2019-01-12T17:37:50.143Z,19.50
2019-01-12T17:40:18.842Z,15.90
2019-01-12T17:42:47.575Z,14.87
2019-01-12T17:45:18.448Z,13.20
2019-01-12T17:47:47.218Z,15.80
2019-01-12T17:50:17.862Z,14.37
2019-01-12T17:52:46.479Z,12.87
2019-01-12T17:55:17.186Z,12.57
2019-01-12T17:57:45.783Z,17.80
2019-01-12T18:00:19.523Z,14.93
2019-01-12T18:02:48.178Z,15.93
2019-01-12T18:05:17.270Z,16.57
2019-01-12T18:07:45.870Z,14.57
2019-01-12T18:10:14.912Z,15.67
2019-01-12T18:12:43.663Z,18.73
2019-01-12T18:15:13.036Z,14.90
2019-01-12T18:17:41.663Z,24.17
2019-01-12T18:20:11.838Z,14.27
2019-01-12T18:22:40.511Z,17.03
2019-01-12T18:25:10.255Z,11.13
2019-01-12T18:27:38.923Z,13.37
2019-01-12T18:30:16.653Z,20.47
2019-01-12T18:32:45.432Z,23.63
2019-01-12T18:35:14.066Z,13.53
2019-01-12T18:37:42.666Z,13.70
2019-01-12T18:40:13.550Z,10.77
2019-01-12T18:42:42.283Z,17.17
2019-01-12T18:45:12.625Z,11.67
2019-01-12T18:47:41.506Z,15.87
2019-01-12T18:50:13.727Z,15.23
2019-01-12T18:52:42.327Z,13.70
2019-01-12T18:55:11.423Z,14.63
2019-01-12T18:57:40.227Z,14.40
2019-01-12T19:00:18.607Z,28.17
2019-01-12T19:02:46.070Z,12.67
2019-01-12T19:05:14.762Z,26.83
2019-01-12T19:07:43.375Z,14.20
2019-01-12T19:10:12.557Z,18.80
2019-01-12T19:12:41.154Z,16.40
2019-01-12T19:15:12.793Z,22.40
2019-01-12T19:17:41.407Z,17.43
2019-01-12T19:20:10.233Z,27.17
2019-01-12T19:22:38.930Z,18.33
2019-01-12T19:25:08.235Z,20.27
2019-01-12T19:27:36.840Z,21.10
2019-01-12T19:30:08.195Z,16.00
2019-01-12T19:32:36.849Z,15.80
2019-01-12T19:35:06.124Z,8.53
2019-01-12T19:37:34.795Z,13.43
2019-01-12T19:40:03.635Z,14.40
2019-01-12T19:42:32.275Z,13.20
2019-01-12T19:45:00.936Z,14.30
2019-01-12T19:47:29.523Z,13.40
2019-01-12T19:49:58.134Z,13.00
2019-01-12T19:52:26.871Z,16.60
2019-01-12T19:54:55.476Z,16.40
2019-01-12T19:57:24.107Z,12.37
2019-01-12T19:59:52.700Z,16.10
2019-01-12T20:02:21.421Z,15.77
2019-01-12T20:04:50.007Z,16.23
2019-01-12T20:07:18.667Z,16.70
2019-01-12T20:09:47.279Z,26.80
2019-01-12T20:12:15.907Z,20.13
2019-01-12T20:14:44.509Z,15.77
2019-01-12T20:17:13.155Z,17.83
2019-01-12T20:19:41.756Z,17.87
2019-01-12T20:22:10.412Z,20.60
2019-01-12T20:24:39.046Z,25.67
2019-01-12T20:27:07.763Z,17.30
2019-01-12T20:29:36.359Z,10.50
2019-01-12T20:32:33.628Z,18.83
2019-01-12T20:35:12.461Z,14.40
2019-01-12T20:38:16.527Z,6.67
2019-01-12T20:41:04.535Z,14.40
2019-01-12T20:44:03.850Z,10.77
2019-01-12T20:47:01.424Z,9.23
2019-01-12T20:49:41.348Z,9.80
2019-01-12T20:52:39.454Z,8.63
2019-01-12T20:55:24.844Z,4.93
2019-01-12T20:58:23.254Z,5.97
2019-01-12T21:01:23.160Z,8.50
2019-01-12T21:04:29.135Z,9.63
2019-01-12T21:07:21.148Z,8.00
2019-01-12T21:10:20.759Z,9.60
2019-01-12T21:13:21.532Z,12.30
2019-01-12T21:15:58.975Z,11.17
2019-01-12T21:18:27.617Z,11.53
2019-01-12T21:20:56.220Z,17.73
2019-01-12T21:23:24.887Z,17.37
2019-01-12T21:25:53.467Z,16.73
2019-01-12T21:28:22.115Z,11.83
2019-01-12T21:30:50.714Z,22.00
2019-01-12T21:33:19.378Z,24.63
2019-01-12T21:35:48.013Z,15.97
2019-01-12T21:38:16.653Z,11.13
2019-01-12T21:40:45.272Z,16.73
2019-01-12T21:43:13.909Z,15.03
2019-01-12T21:45:42.517Z,16.00
2019-01-12T21:48:11.144Z,16.93
2019-01-12T21:50:39.779Z,21.40
2019-01-12T21:53:08.459Z,14.20
2019-01-12T21:55:37.049Z,15.37
2019-01-12T21:58:05.795Z,28.63
2019-01-12T22:00:34.394Z,20.73
2019-01-12T22:03:03.014Z,17.50
2019-01-12T22:05:31.627Z,13.10
2019-01-12T22:08:00.271Z,20.43
2019-01-12T22:10:28.867Z,17.90
2019-01-12T22:12:57.504Z,20.23
2019-01-12T22:15:26.109Z,20.30
2019-01-12T22:17:54.719Z,20.13
2019-01-12T22:20:23.335Z,20.40
2019-01-12T22:22:51.967Z,26.93
2019-01-12T22:25:20.567Z,24.23
2019-01-12T22:27:49.195Z,15.10
2019-01-12T22:30:18.034Z,19.73
2019-01-12T22:32:46.827Z,15.10
2019-01-12T22:35:15.502Z,16.57
2019-01-12T22:37:44.290Z,17.93
2019-01-12T22:40:15.941Z,11.20
2019-01-12T22:42:44.567Z,18.53
2019-01-12T22:45:13.255Z,13.43
2019-01-12T22:47:41.887Z,29.23
2019-01-12T22:50:12.195Z,16.30
2019-01-12T22:52:40.831Z,19.83
2019-01-12T22:55:10.620Z,19.40
2019-01-12T22:57:39.226Z,16.37
2019-01-12T23:00:47.276Z,16.95
2019-01-12T23:03:16.584Z,27.27
2019-01-12T23:05:45.181Z,20.17
2019-01-12T23:08:13.944Z,12.33
2019-01-12T23:10:42.531Z,11.10
2019-01-12T23:13:11.138Z,24.00
2019-01-12T23:15:40.463Z,24.77
2019-01-12T23:18:09.176Z,12.73
2019-01-12T23:20:37.791Z,17.83
2019-01-12T23:23:06.562Z,20.63
2019-01-12T23:25:35.139Z,20.87
2019-01-12T23:28:03.925Z,15.50
2019-01-12T23:30:32.515Z,15.23
2019-01-12T23:33:01.190Z,16.47
2019-01-12T23:35:29.831Z,18.10
2019-01-12T23:37:58.440Z,13.77
2019-01-12T23:40:27.034Z,24.07
2019-01-12T23:42:55.935Z,19.70
2019-01-12T23:45:24.756Z,20.77
2019-01-12T23:47:53.354Z,18.67
2019-01-12T23:50:21.964Z,18.43
2019-01-12T23:52:50.566Z,15.00
2019-01-12T23:55:19.890Z,19.73
2019-01-12T23:57:48.702Z,26.03
